Time;durP1;ratioP1;P1;durP2;ratioP2;P2;SDS_P1;SDS_P2;PMS_P1;PMS_P2;Temp;Humidity;BMP_temperature;BMP_pressure;BME280_temperature;BME280_humidity;BME280_pressure;Samples;Min_cycle;Max_cycle;Signal;HPM_P1;HPM_P2
2021/05/09 00:02:26;;;;;;;6.38;5.78;;;9.10;99.90;;;;;;5075049;28;20214;-65
2021/05/09 00:04:52;;;;;;;6.50;5.60;;;9.00;99.90;;;;;;5076647;28;20199;-66
2021/05/09 00:07:19;;;;;;;6.20;5.70;;;8.90;99.90;;;;;;5078220;28;20196;-65
2021/05/09 00:09:45;;;;;;;6.53;5.80;;;8.70;99.90;;;;;;5078148;28;20207;-65
2021/05/09 00:12:12;;;;;;;6.88;6.07;;;8.60;99.90;;;;;;5077951;28;20275;-66
2021/05/09 00:14:38;;;;;;;6.20;5.68;;;8.50;99.90;;;;;;5077544;28;20224;-65
2021/05/09 00:17:04;;;;;;;6.15;5.65;;;8.60;99.90;;;;;;5077252;28;20200;-65
2021/05/09 00:19:31;;;;;;;6.63;5.93;;;8.60;99.90;;;;;;5076808;28;20207;-65
2021/05/09 00:21:57;;;;;;;6.10;5.60;;;8.60;99.90;;;;;;5076830;28;20214;-65
2021/05/09 00:24:23;;;;;;;6.20;5.60;;;8.70;99.90;;;;;;5076587;28;20199;-65
2021/05/09 00:26:50;;;;;;;5.50;5.15;;;8.60;99.90;;;;;;5076424;28;20203;-65
2021/05/09 00:29:16;;;;;;;7.43;6.68;;;8.60;99.90;;;;;;5076305;28;20204;-65
2021/05/09 00:31:42;;;;;;;5.95;5.55;;;8.70;99.90;;;;;;5076057;28;20194;-65
2021/05/09 00:34:09;;;;;;;6.25;5.75;;;8.80;99.90;;;;;;5075163;28;20302;-66
2021/05/09 00:36:35;;;;;;;9.10;6.35;;;8.90;99.90;;;;;;5076756;28;20230;-66
2021/05/09 00:39:01;;;;;;;6.82;5.43;;;8.90;99.90;;;;;;5076053;28;20196;-66
2021/05/09 00:41:28;;;;;;;6.82;5.45;;;8.90;99.90;;;;;;5075491;28;20211;-65
2021/05/09 00:43:54;;;;;;;7.45;6.75;;;8.90;99.90;;;;;;5075604;28;20200;-65
2021/05/09 00:46:21;;;;;;;8.45;7.55;;;8.80;99.90;;;;;;5075658;28;20204;-65
2021/05/09 00:48:47;;;;;;;7.88;7.18;;;8.80;99.90;;;;;;5075506;28;20208;-65
2021/05/09 00:51:13;;;;;;;9.77;8.23;;;8.80;99.90;;;;;;5075352;28;20209;-65
2021/05/09 00:53:42;;;;;;;7.63;6.93;;;8.80;99.90;;;;;;5075635;28;20326;-65
2021/05/09 00:56:12;;;;;;;8.80;6.38;;;8.90;99.90;;;;;;5075696;28;20220;-65
2021/05/09 00:58:42;;;;;;;6.53;5.57;;;8.90;99.90;;;;;;5075528;28;20202;-65
2021/05/09 01:01:10;;;;;;;12.70;6.78;;;8.90;99.90;;;;;;5075514;28;20222;-65
2021/05/09 01:03:38;;;;;;;5.72;5.15;;;9.00;99.90;;;;;;5075491;28;20257;-65
2021/05/09 01:06:06;;;;;;;5.57;5.10;;;8.90;99.90;;;;;;5075090;28;20666;-65
2021/05/09 01:08:34;;;;;;;9.20;5.53;;;8.80;99.90;;;;;;5075546;28;20206;-66
2021/05/09 01:11:03;;;;;;;7.97;5.72;;;8.80;99.90;;;;;;5075014;28;20211;-66
2021/05/09 01:13:30;;;;;;;5.50;5.00;;;8.80;99.90;;;;;;5075598;28;20237;-66
2021/05/09 01:15:57;;;;;;;6.03;5.47;;;8.70;99.90;;;;;;5075472;28;20223;-65
2021/05/09 01:18:23;;;;;;;7.97;5.80;;;8.70;99.90;;;;;;5075811;28;20278;-65
2021/05/09 01:20:50;;;;;;;7.07;6.32;;;8.70;99.90;;;;;;5075049;28;20206;-65
2021/05/09 01:23:16;;;;;;;6.20;5.68;;;8.60;99.90;;;;;;5074727;28;20198;-66
2021/05/09 01:25:43;;;;;;;6.97;6.38;;;8.60;99.90;;;;;;5074991;28;20203;-66
2021/05/09 01:28:10;;;;;;;7.05;6.35;;;8.50;99.90;;;;;;5075298;28;20192;-65
2021/05/09 01:30:36;;;;;;;6.13;5.63;;;8.60;99.90;;;;;;5074996;28;20196;-65
2021/05/09 01:33:04;;;;;;;6.65;6.05;;;8.70;99.90;;;;;;5075317;28;20204;-65
2021/05/09 01:35:30;;;;;;;5.65;5.15;;;8.70;99.90;;;;;;5075300;28;20309;-66
2021/05/09 01:37:57;;;;;;;6.40;5.90;;;8.70;99.90;;;;;;5078797;28;20188;-65
2021/05/09 01:40:23;;;;;;;6.72;6.05;;;8.80;99.90;;;;;;5079110;28;20605;-65
2021/05/09 01:42:49;;;;;;;5.68;5.28;;;8.70;99.90;;;;;;5078444;28;20283;-65
2021/05/09 01:45:16;;;;;;;7.25;6.43;;;8.60;99.90;;;;;;5078806;28;20202;-65
2021/05/09 01:47:43;;;;;;;6.00;5.43;;;8.60;99.90;;;;;;5079041;28;20200;-66
2021/05/09 01:50:16;;;;;;;7.20;5.65;;;8.60;99.90;;;;;;5078749;28;20204;-66
2021/05/09 01:52:42;;;;;;;6.55;6.03;;;8.70;99.90;;;;;;5078689;28;20703;-66
2021/05/09 01:55:18;;;;;;;6.50;5.70;;;8.70;99.90;;;;;;5078811;28;20226;-66
2021/05/09 01:57:45;;;;;;;6.18;5.57;;;8.80;99.90;;;;;;5079450;28;20204;-66
2021/05/09 02:00:14;;;;;;;6.20;5.60;;;8.80;99.90;;;;;;5078829;28;20192;-66
2021/05/09 02:02:40;;;;;;;6.25;5.75;;;8.90;99.90;;;;;;5078556;28;20210;-66
2021/05/09 02:05:08;;;;;;;6.88;5.85;;;8.90;99.90;;;;;;5078711;28;20203;-66
2021/05/09 02:07:34;;;;;;;7.53;6.25;;;8.90;99.90;;;;;;5079127;28;20204;-66
2021/05/09 02:10:02;;;;;;;5.35;5.00;;;8.90;99.90;;;;;;5078779;28;20196;-66
2021/05/09 02:12:28;;;;;;;8.70;5.90;;;8.80;99.90;;;;;;5078601;28;20659;-66
2021/05/09 02:14:55;;;;;;;6.10;5.65;;;8.80;99.90;;;;;;5078280;28;20223;-66
2021/05/09 02:17:21;;;;;;;7.13;6.43;;;8.90;99.90;;;;;;5078497;28;20257;-66
2021/05/09 02:19:47;;;;;;;7.00;6.30;;;8.90;99.90;;;;;;5078336;28;20187;-66
2021/05/09 02:22:14;;;;;;;6.70;6.10;;;8.80;99.90;;;;;;5078295;28;20204;-66
2021/05/09 02:24:44;;;;;;;7.00;6.30;;;8.80;99.90;;;;;;5078245;28;20188;-66
2021/05/09 02:27:11;;;;;;;6.93;6.22;;;8.80;99.90;;;;;;5078093;28;20199;-66
2021/05/09 02:29:38;;;;;;;9.02;7.10;;;8.80;99.90;;;;;;5077452;28;20222;-66
2021/05/09 02:32:05;;;;;;;8.80;7.97;;;8.80;99.90;;;;;;5078247;28;20247;-66
2021/05/09 02:34:32;;;;;;;6.97;6.30;;;8.90;99.90;;;;;;5078078;28;20275;-66
2021/05/09 02:36:59;;;;;;;7.13;6.38;;;8.90;99.90;;;;;;5078131;28;20215;-66
2021/05/09 02:39:25;;;;;;;10.00;7.88;;;8.90;99.90;;;;;;5077681;28;20663;-66
2021/05/09 02:41:51;;;;;;;7.70;7.00;;;8.90;99.90;;;;;;5078607;28;20232;-66
2021/05/09 02:44:18;;;;;;;6.35;5.85;;;8.90;99.90;;;;;;5080119;28;20222;-64
2021/05/09 02:46:44;;;;;;;6.57;6.07;;;8.80;99.90;;;;;;5078451;28;20214;-63
2021/05/09 02:49:10;;;;;;;9.18;6.25;;;8.60;99.90;;;;;;5077948;28;20305;-64
2021/05/09 02:51:37;;;;;;;11.40;6.80;;;8.50;99.90;;;;;;5077835;28;20196;-66
2021/05/09 02:54:03;;;;;;;6.88;6.28;;;8.50;99.90;;;;;;5077457;28;20246;-64
2021/05/09 02:56:30;;;;;;;7.70;5.82;;;8.60;99.90;;;;;;5077178;28;20220;-64
2021/05/09 02:58:57;;;;;;;5.68;5.20;;;8.70;99.90;;;;;;5076437;28;20218;-64
2021/05/09 03:01:23;;;;;;;6.18;5.57;;;8.70;99.90;;;;;;5076773;28;20214;-64
2021/05/09 03:03:49;;;;;;;6.20;5.60;;;8.70;99.90;;;;;;5077122;28;20192;-64
2021/05/09 03:06:16;;;;;;;6.85;6.25;;;8.70;99.90;;;;;;5075370;28;20575;-64
2021/05/09 03:08:42;;;;;;;6.50;5.90;;;8.70;99.90;;;;;;5076895;28;20208;-64
2021/05/09 03:11:09;;;;;;;6.13;5.63;;;8.70;99.90;;;;;;5062430;28;20203;-64
2021/05/09 03:13:35;;;;;;;5.88;5.38;;;8.70;99.90;;;;;;5076960;28;20192;-64
2021/05/09 03:16:02;;;;;;;11.40;10.23;;;8.70;99.90;;;;;;5064342;28;20220;-64
2021/05/09 03:18:29;;;;;;;9.63;6.93;;;8.70;99.90;;;;;;5057517;28;20732;-65
2021/05/09 03:20:56;;;;;;;8.40;6.93;;;8.70;99.90;;;;;;5057621;28;20226;-64
2021/05/09 03:23:23;;;;;;;8.25;7.38;;;8.80;99.90;;;;;;5057723;28;20660;-65
2021/05/09 03:25:49;;;;;;;6.70;6.10;;;8.80;99.90;;;;;;5057292;28;20203;-65
2021/05/09 03:28:16;;;;;;;7.22;6.40;;;8.80;99.90;;;;;;5057474;28;20199;-65
2021/05/09 03:30:42;;;;;;;7.43;6.20;;;8.80;99.90;;;;;;5057508;28;20192;-65
2021/05/09 03:33:09;;;;;;;8.40;6.03;;;8.90;99.90;;;;;;5056990;28;20207;-65
2021/05/09 03:35:35;;;;;;;7.38;6.15;;;8.80;99.90;;;;;;5056720;28;20231;-64
2021/05/09 03:38:02;;;;;;;10.38;6.57;;;8.80;99.90;;;;;;5056806;28;20201;-65
2021/05/09 03:40:28;;;;;;;8.20;6.13;;;8.80;99.90;;;;;;5056642;28;20225;-65
2021/05/09 03:42:55;;;;;;;6.60;6.00;;;8.80;99.90;;;;;;5056772;28;20189;-64
2021/05/09 03:45:21;;;;;;;5.53;5.03;;;8.70;99.90;;;;;;5056040;28;20659;-64
2021/05/09 03:47:48;;;;;;;5.05;4.65;;;8.60;99.90;;;;;;5055697;28;20192;-65
2021/05/09 03:50:16;;;;;;;5.90;5.40;;;8.60;99.90;;;;;;5056427;28;20198;-65
2021/05/09 03:52:42;;;;;;;6.32;5.72;;;8.40;99.90;;;;;;5056240;28;20225;-65
2021/05/09 03:55:09;;;;;;;8.68;7.88;;;8.40;99.90;;;;;;5055980;28;20204;-65
2021/05/09 03:57:36;;;;;;;10.00;8.90;;;8.40;99.90;;;;;;5056568;28;20205;-64
2021/05/09 04:00:04;;;;;;;6.75;6.05;;;8.40;99.90;;;;;;5055086;28;20203;-64
2021/05/09 04:02:30;;;;;;;6.07;5.47;;;8.40;99.90;;;;;;5057765;28;20200;-65
2021/05/09 04:04:57;;;;;;;7.00;6.30;;;8.40;99.90;;;;;;5058643;28;20230;-65
2021/05/09 04:07:23;;;;;;;6.78;6.15;;;8.30;99.90;;;;;;5058407;28;20683;-65
2021/05/09 04:09:49;;;;;;;5.70;5.30;;;8.40;99.90;;;;;;5057099;28;20203;-65
2021/05/09 04:12:16;;;;;;;7.55;5.85;;;8.40;99.90;;;;;;5056791;28;20199;-65
2021/05/09 04:14:42;;;;;;;6.82;5.70;;;8.40;99.90;;;;;;5057255;28;20203;-65
2021/05/09 04:17:09;;;;;;;5.00;4.60;;;8.50;99.90;;;;;;5056758;28;20303;-65
2021/05/09 04:19:35;;;;;;;5.35;4.95;;;8.50;99.90;;;;;;5056899;28;20339;-65
2021/05/09 04:22:02;;;;;;;12.27;6.05;;;8.60;99.90;;;;;;5056424;28;20275;-65
2021/05/09 04:24:29;;;;;;;5.40;5.00;;;8.60;99.90;;;;;;5055986;28;20196;-65
2021/05/09 04:26:55;;;;;;;6.72;5.28;;;8.70;99.90;;;;;;5055368;28;20212;-65
2021/05/09 04:29:22;;;;;;;5.68;5.18;;;8.80;99.90;;;;;;5056380;28;20209;-65
2021/05/09 04:31:48;;;;;;;5.00;4.60;;;8.90;99.90;;;;;;5055843;28;20197;-65
2021/05/09 04:34:14;;;;;;;6.10;5.60;;;8.90;99.90;;;;;;5056165;28;20210;-65
2021/05/09 04:36:41;;;;;;;5.25;4.88;;;9.00;99.90;;;;;;5055814;28;20224;-65
2021/05/09 04:39:07;;;;;;;6.78;6.10;;;9.10;99.90;;;;;;5056004;28;20257;-65
2021/05/09 04:41:34;;;;;;;6.20;5.57;;;9.10;99.90;;;;;;5056180;28;20223;-65
2021/05/09 04:44:00;;;;;;;5.30;4.78;;;9.10;99.90;;;;;;5055989;28;20668;-65
2021/05/09 04:46:27;;;;;;;6.28;5.70;;;9.10;99.90;;;;;;5056110;28;20215;-65
2021/05/09 04:48:53;;;;;;;10.00;7.97;;;9.10;99.90;;;;;;5055267;28;20192;-65
2021/05/09 04:51:20;;;;;;;16.55;11.32;;;9.20;99.90;;;;;;5055275;28;20330;-65
2021/05/09 04:53:46;;;;;;;14.40;11.80;;;9.30;99.90;;;;;;5055668;28;20228;-65
2021/05/09 04:56:13;;;;;;;10.65;8.45;;;9.50;99.90;;;;;;5055281;28;20216;-65
2021/05/09 04:58:41;;;;;;;6.57;5.97;;;9.60;99.90;;;;;;5055284;28;20193;-65
2021/05/09 05:01:09;;;;;;;7.60;6.45;;;9.60;99.90;;;;;;5055170;28;20552;-65
2021/05/09 05:03:36;;;;;;;5.63;5.13;;;9.70;99.90;;;;;;5055260;28;20275;-65
2021/05/09 05:06:03;;;;;;;5.80;5.30;;;9.80;99.90;;;;;;5055158;28;20561;-65
2021/05/09 05:08:32;;;;;;;5.05;4.65;;;9.90;99.90;;;;;;5054806;28;20188;-65
2021/05/09 05:11:00;;;;;;;5.00;4.60;;;10.10;99.90;;;;;;5054264;28;20679;-66
2021/05/09 05:13:28;;;;;;;5.65;5.13;;;10.20;99.90;;;;;;5055322;28;20204;-66
2021/05/09 05:15:56;;;;;;;4.95;4.55;;;10.40;99.90;;;;;;5055229;28;20217;-66
2021/05/09 05:18:23;;;;;;;5.63;5.13;;;10.50;99.90;;;;;;5055965;28;20644;-65
2021/05/09 05:20:51;;;;;;;6.05;5.45;;;10.50;99.90;;;;;;5055213;28;20203;-65
2021/05/09 05:23:17;;;;;;;12.38;5.32;;;10.60;99.90;;;;;;5060294;28;20609;-65
2021/05/09 05:25:44;;;;;;;8.65;6.15;;;10.80;99.90;;;;;;5058151;28;20203;-66
2021/05/09 05:28:11;;;;;;;7.07;6.47;;;11.00;99.90;;;;;;5058073;28;20210;-65
2021/05/09 05:30:38;;;;;;;5.90;5.28;;;11.30;99.90;;;;;;5056690;28;20258;-66
2021/05/09 05:33:05;;;;;;;6.45;5.75;;;11.40;99.90;;;;;;5057027;28;20648;-66
2021/05/09 05:35:33;;;;;;;8.43;6.93;;;11.50;99.90;;;;;;5056662;28;20193;-66
2021/05/09 05:38:00;;;;;;;11.73;6.30;;;11.80;99.90;;;;;;5057226;28;20199;-66
2021/05/09 05:40:27;;;;;;;11.63;6.30;;;11.80;99.90;;;;;;5056539;28;20224;-66
2021/05/09 05:42:53;;;;;;;9.07;5.78;;;11.90;99.90;;;;;;5056324;28;20200;-65
2021/05/09 05:45:20;;;;;;;5.63;4.85;;;12.10;99.90;;;;;;5056424;28;20211;-65
2021/05/09 05:47:46;;;;;;;6.40;5.82;;;12.20;99.90;;;;;;5057649;28;20674;-65
2021/05/09 05:50:13;;;;;;;6.72;6.13;;;12.30;99.90;;;;;;5056792;28;20208;-66
2021/05/09 05:52:40;;;;;;;7.82;5.88;;;12.30;99.90;;;;;;5056205;28;20280;-66
2021/05/09 05:55:07;;;;;;;11.07;6.40;;;12.50;99.90;;;;;;5056465;28;20644;-66
2021/05/09 05:57:33;;;;;;;8.95;6.22;;;12.50;99.90;;;;;;5056225;28;20243;-65
2021/05/09 05:59:59;;;;;;;6.97;6.38;;;12.60;99.90;;;;;;5056157;28;20196;-66
2021/05/09 06:02:26;;;;;;;6.88;6.25;;;12.60;99.90;;;;;;5055493;28;20295;-66
2021/05/09 06:04:52;;;;;;;10.35;5.78;;;12.50;99.90;;;;;;5057091;28;20211;-66
2021/05/09 06:07:18;;;;;;;7.22;6.50;;;12.50;99.90;;;;;;5058455;28;20573;-66
2021/05/09 06:09:45;;;;;;;9.25;5.93;;;12.50;99.90;;;;;;5061351;28;20193;-66
2021/05/09 06:12:11;;;;;;;6.40;5.90;;;12.50;99.90;;;;;;5060530;28;20282;-66
2021/05/09 06:14:38;;;;;;;7.00;6.30;;;12.60;99.90;;;;;;5060191;28;20193;-66
2021/05/09 06:17:04;;;;;;;6.05;5.40;;;12.80;99.90;;;;;;5060917;28;20229;-66
2021/05/09 06:19:30;;;;;;;6.45;5.95;;;12.80;99.90;;;;;;5060766;28;20197;-66
2021/05/09 06:21:57;;;;;;;6.53;5.50;;;13.00;99.90;;;;;;5061666;28;20197;-66
2021/05/09 06:24:23;;;;;;;5.78;5.30;;;13.30;99.90;;;;;;5062991;28;20283;-66
2021/05/09 06:26:50;;;;;;;5.82;5.43;;;13.50;99.90;;;;;;5064292;28;20197;-65
2021/05/09 06:29:16;;;;;;;5.65;5.15;;;13.50;99.90;;;;;;5064867;28;20212;-65
2021/05/09 06:31:43;;;;;;;6.22;4.68;;;13.80;99.90;;;;;;5064843;28;20196;-65
2021/05/09 06:34:09;;;;;;;5.90;5.40;;;13.80;99.90;;;;;;5070856;28;20204;-65
2021/05/09 06:36:36;;;;;;;7.33;5.10;;;13.80;99.90;;;;;;5071051;28;20303;-64
2021/05/09 06:39:04;;;;;;;10.63;5.63;;;14.10;99.90;;;;;;5082516;28;20585;-65
2021/05/09 06:41:31;;;;;;;8.77;6.60;;;14.30;99.90;;;;;;5065086;28;20766;-64
2021/05/09 06:44:00;;;;;;;6.77;6.17;;;14.50;99.90;;;;;;5065383;28;20676;-64
2021/05/09 06:46:26;;;;;;;7.57;6.87;;;14.60;99.90;;;;;;5064801;28;20636;-64
2021/05/09 06:48:52;;;;;;;5.47;5.00;;;14.60;99.90;;;;;;5064828;28;20625;-64
2021/05/09 06:51:20;;;;;;;6.10;5.50;;;14.70;99.90;;;;;;5065466;28;20611;-64
2021/05/09 06:53:47;;;;;;;9.20;5.30;;;14.90;99.90;;;;;;5064698;28;20619;-65
2021/05/09 06:56:13;;;;;;;5.83;5.43;;;15.00;99.90;;;;;;5064449;28;20638;-64
2021/05/09 06:58:41;;;;;;;5.43;4.93;;;15.10;99.90;;;;;;5064856;28;20597;-65
2021/05/09 07:01:07;;;;;;;4.97;4.67;;;15.30;99.90;;;;;;5063747;28;20722;-65
2021/05/09 07:03:34;;;;;;;5.73;5.10;;;15.70;99.90;;;;;;5063182;28;21212;-65
2021/05/09 07:06:01;;;;;;;9.80;6.63;;;15.80;99.90;;;;;;5063951;28;20562;-65
2021/05/09 07:08:27;;;;;;;6.93;6.40;;;15.60;99.90;;;;;;5063634;28;20627;-65
2021/05/09 07:10:53;;;;;;;9.63;5.87;;;15.50;99.90;;;;;;5064451;28;20702;-65
2021/05/09 07:13:20;;;;;;;6.40;5.80;;;15.60;99.90;;;;;;5063949;28;20600;-65
2021/05/09 07:15:48;;;;;;;8.93;5.67;;;16.00;99.90;;;;;;5064849;28;20610;-65
2021/05/09 07:18:17;;;;;;;6.03;5.53;;;16.10;99.90;;;;;;5064228;28;20626;-64
2021/05/09 07:20:45;;;;;;;6.20;5.60;;;16.40;99.90;;;;;;5055847;28;20966;-63
2021/05/09 07:23:13;;;;;;;13.23;5.83;;;16.40;99.90;;;;;;5055524;28;20618;-63
2021/05/09 07:25:40;;;;;;;5.87;5.37;;;16.50;99.90;;;;;;5055784;28;20631;-65
2021/05/09 07:28:11;;;;;;;5.10;4.80;;;16.40;99.90;;;;;;5055179;28;20744;-63
2021/05/09 07:30:39;;;;;;;17.30;6.00;;;16.50;99.90;;;;;;5055512;28;20568;-63
2021/05/09 07:33:10;;;;;;;5.50;5.10;;;16.70;99.90;;;;;;5055367;28;20618;-63
2021/05/09 07:35:36;;;;;;;4.93;4.57;;;16.80;99.90;;;;;;5054759;28;21155;-64
2021/05/09 07:38:04;;;;;;;10.20;5.07;;;17.00;99.90;;;;;;5055959;28;20655;-63
2021/05/09 07:40:31;;;;;;;10.20;5.33;;;17.00;99.90;;;;;;5054929;28;21208;-63
2021/05/09 07:42:57;;;;;;;7.83;4.50;;;17.00;99.90;;;;;;5054993;28;20627;-63
2021/05/09 07:45:24;;;;;;;4.53;3.87;;;17.20;99.90;;;;;;5055046;28;20964;-63
2021/05/09 07:47:51;;;;;;;5.60;4.10;;;17.10;99.90;;;;;;5055291;28;20626;-63
2021/05/09 07:50:19;;;;;;;7.83;4.03;;;17.30;99.90;;;;;;5054821;28;20599;-63
2021/05/09 07:52:48;;;;;;;3.70;3.40;;;17.60;99.90;;;;;;5054620;28;20647;-63
2021/05/09 07:55:16;;;;;;;4.70;4.23;;;17.80;99.90;;;;;;5055106;28;20606;-63
2021/05/09 07:57:44;;;;;;;5.20;4.33;;;18.10;99.90;;;;;;5054553;28;20631;-63
2021/05/09 08:00:15;;;;;;;4.00;3.70;;;18.30;99.90;;;;;;5054670;28;20591;-64
2021/05/09 08:02:45;;;;;;;3.40;3.20;;;18.30;99.90;;;;;;5054635;28;20627;-63
2021/05/09 08:05:12;;;;;;;3.67;3.40;;;18.50;99.90;;;;;;5054869;28;20619;-63
2021/05/09 08:07:54;;;;;;;4.00;3.60;;;18.50;99.90;;;;;;5054772;28;21172;-63
2021/05/09 08:10:22;;;;;;;5.97;4.40;;;18.70;99.90;;;;;;5054827;28;20626;-63
2021/05/09 08:12:50;;;;;;;4.17;3.70;;;18.80;99.90;;;;;;5054752;28;20706;-63
2021/05/09 08:15:17;;;;;;;4.33;3.60;;;19.20;99.90;;;;;;5054922;28;20623;-63
2021/05/09 08:17:46;;;;;;;3.93;3.63;;;19.20;99.90;;;;;;5054566;28;20655;-63
2021/05/09 08:20:13;;;;;;;5.00;3.50;;;19.20;99.90;;;;;;5054738;28;20614;-63
2021/05/09 08:22:40;;;;;;;3.93;3.37;;;19.20;99.90;;;;;;5054889;28;21016;-64
2021/05/09 08:25:08;;;;;;;3.00;2.90;;;19.30;99.90;;;;;;5053944;28;20681;-64
2021/05/09 08:27:34;;;;;;;3.30;3.10;;;19.70;99.90;;;;;;5054063;28;20607;-64
2021/05/09 08:30:05;;;;;;;2.87;2.67;;;19.50;99.90;;;;;;5054406;28;21211;-64
2021/05/09 08:32:31;;;;;;;3.57;3.30;;;19.80;99.90;;;;;;5054456;28;20621;-64
2021/05/09 08:34:59;;;;;;;3.23;3.03;;;20.10;99.90;;;;;;5058015;28;20615;-65
2021/05/09 08:37:25;;;;;;;4.40;3.90;;;20.40;99.90;;;;;;5062402;28;20654;-65
2021/05/09 08:39:52;;;;;;;3.25;3.00;;;20.30;99.90;;;;;;5061019;28;20729;-65
2021/05/09 08:42:19;;;;;;;6.10;3.80;;;20.30;99.90;;;;;;5062669;28;20193;-65
2021/05/09 08:44:47;;;;;;;2.83;2.63;;;20.60;99.90;;;;;;5062810;28;20691;-65
2021/05/09 08:47:21;;;;;;;3.13;2.93;;;20.80;99.90;;;;;;5061372;28;20615;-65
2021/05/09 08:49:51;;;;;;;4.40;2.10;;;21.00;99.90;;;;;;5058837;28;20567;-65
2021/05/09 08:52:19;;;;;;;6.70;2.43;;;20.80;99.90;;;;;;5061097;28;20666;-65
2021/05/09 08:54:46;;;;;;;3.20;2.23;;;20.60;99.90;;;;;;5058162;28;20575;-65
2021/05/09 08:57:14;;;;;;;2.33;1.93;;;20.80;99.90;;;;;;5057387;28;20672;-65
2021/05/09 08:59:40;;;;;;;2.50;2.30;;;20.90;99.90;;;;;;5058630;28;20617;-65
2021/05/09 09:02:06;;;;;;;2.43;2.20;;;20.70;99.90;;;;;;5057402;28;20615;-66
2021/05/09 09:04:47;;;;;;;3.17;2.37;;;20.90;99.90;;;;;;5054022;28;20618;-65
2021/05/09 09:07:14;;;;;;;3.53;2.07;;;20.90;99.90;;;;;;5053804;28;20709;-65
2021/05/09 09:09:45;;;;;;;2.27;2.07;;;21.40;99.90;;;;;;5053509;28;20588;-65
2021/05/09 09:12:12;;;;;;;2.33;2.23;;;21.40;99.90;;;;;;5053442;28;20559;-65
2021/05/09 09:14:51;;;;;;;3.43;2.83;;;21.50;99.90;;;;;;5053914;28;20611;-65
2021/05/09 09:17:18;;;;;;;4.23;3.40;;;21.90;99.90;;;;;;5053610;28;20738;-65
2021/05/09 09:20:05;;;;;;;3.70;3.40;;;22.00;99.90;;;;;;5053524;28;20613;-65
2021/05/09 09:23:01;;;;;;;7.20;3.10;;;22.30;99.90;;;;;;5053517;28;20626;-65
2021/05/09 09:25:30;;;;;;;5.13;3.20;;;22.50;99.90;;;;;;5053621;28;20615;-65
2021/05/09 09:27:57;;;;;;;4.30;3.20;;;22.80;99.90;;;;;;5052201;28;20614;-65
2021/05/09 09:30:26;;;;;;;3.10;2.80;;;22.90;99.90;;;;;;5053121;28;20595;-65
2021/05/09 09:33:13;;;;;;;4.00;2.70;;;22.90;99.90;;;;;;5053173;28;20595;-65
2021/05/09 09:35:42;;;;;;;3.33;2.60;;;23.30;99.90;;;;;;5053557;28;20976;-65
2021/05/09 09:38:21;;;;;;;3.53;3.13;;;23.40;99.90;;;;;;5052776;28;21193;-65
2021/05/09 09:41:14;;;;;;;3.40;3.17;;;23.50;99.90;;;;;;5053483;28;20982;-65
2021/05/09 09:44:01;;;;;;;4.13;3.20;;;23.30;99.90;;;;;;5053142;28;20792;-65
2021/05/09 09:46:33;;;;;;;3.73;2.97;;;23.40;99.90;;;;;;5053084;28;21121;-65
2021/05/09 09:49:01;;;;;;;15.17;4.00;;;23.20;99.90;;;;;;5053935;28;20619;-65
2021/05/09 09:51:27;;;;;;;3.40;3.07;;;23.40;99.90;;;;;;5052994;28;20625;-66
2021/05/09 09:53:56;;;;;;;4.07;2.77;;;23.70;99.90;;;;;;5053114;28;20786;-65
2021/05/09 09:56:24;;;;;;;2.70;2.50;;;23.90;99.90;;;;;;5053073;28;20626;-65
2021/05/09 09:58:52;;;;;;;3.63;3.33;;;23.30;99.90;;;;;;5056360;28;20718;-65
2021/05/09 10:01:24;;;;;;;2.73;2.50;;;23.50;99.90;;;;;;5056978;28;20631;-65
2021/05/09 10:03:52;;;;;;;7.70;2.87;;;23.70;99.90;;;;;;5057001;28;20619;-65
2021/05/09 10:06:19;;;;;;;2.40;2.17;;;24.10;99.90;;;;;;5056809;28;20614;-67
2021/05/09 10:08:46;;;;;;;3.13;2.13;;;23.90;99.90;;;;;;5056956;28;21255;-65
2021/05/09 10:11:13;;;;;;;2.80;2.50;;;24.40;99.90;;;;;;5060448;28;20615;-65
2021/05/09 10:13:40;;;;;;;2.70;2.37;;;24.00;99.90;;;;;;5056888;28;20977;-65
2021/05/09 10:16:08;;;;;;;2.57;2.37;;;24.00;99.90;;;;;;5055442;28;20601;-65
2021/05/09 10:18:39;;;;;;;2.90;2.30;;;24.20;99.90;;;;;;5056340;28;20716;-65
2021/05/09 10:21:05;;;;;;;3.03;2.37;;;24.20;99.90;;;;;;5056506;28;20619;-65
2021/05/09 10:23:32;;;;;;;2.53;2.27;;;24.30;99.90;;;;;;5056747;28;20619;-65
2021/05/09 10:25:59;;;;;;;2.47;2.27;;;24.50;99.90;;;;;;5056312;28;20591;-65
2021/05/09 10:28:41;;;;;;;6.80;2.57;;;24.50;99.90;;;;;;5056383;28;20619;-65
2021/05/09 10:31:08;;;;;;;3.10;2.90;;;24.70;99.90;;;;;;5056501;28;21179;-65
2021/05/09 10:33:40;;;;;;;3.27;3.00;;;24.80;99.90;;;;;;5056131;28;20590;-65
2021/05/09 10:36:27;;;;;;;2.40;2.20;;;24.80;99.90;;;;;;5056356;28;20914;-65
2021/05/09 10:39:07;;;;;;;2.40;2.30;;;25.00;99.90;;;;;;5055603;28;20638;-65
2021/05/09 10:41:35;;;;;;;2.97;2.77;;;25.10;99.90;;;;;;5056138;28;20654;-65
2021/05/09 10:44:40;;;;;;;2.47;2.23;;;24.90;99.90;;;;;;5056211;28;20626;-65
2021/05/09 10:47:14;;;;;;;3.17;2.73;;;25.20;99.90;;;;;;5056464;28;20637;-65
2021/05/09 10:50:12;;;;;;;2.80;2.47;;;25.40;99.90;;;;;;5055960;28;20623;-65
2021/05/09 10:52:43;;;;;;;2.60;2.40;;;25.40;99.90;;;;;;5055796;28;20654;-65
2021/05/09 10:55:47;;;;;;;2.77;2.57;;;25.30;99.90;;;;;;5055852;28;20952;-65
2021/05/09 10:58:17;;;;;;;2.87;2.67;;;25.00;99.90;;;;;;5055407;28;20708;-65
2021/05/09 11:00:55;;;;;;;2.53;2.43;;;25.30;99.90;;;;;;5055314;28;20622;-65
2021/05/09 11:03:40;;;;;;;2.30;2.10;;;26.10;99.90;;;;;;5055802;28;20647;-65
2021/05/09 11:06:14;;;;;;;2.10;2.00;;;26.00;99.90;;;;;;5055976;28;20617;-65
2021/05/09 11:08:43;;;;;;;3.40;2.27;;;26.60;99.90;;;;;;5054230;28;21096;-65
2021/05/09 11:11:13;;;;;;;2.60;2.07;;;26.90;99.90;;;;;;5055939;28;20717;-65
2021/05/09 11:14:08;;;;;;;2.00;1.80;;;27.20;99.90;;;;;;5055459;28;20598;-65
2021/05/09 11:17:03;;;;;;;1.90;1.80;;;27.10;99.90;;;;;;5054207;28;20642;-65
2021/05/09 11:19:44;;;;;;;2.60;1.97;;;27.00;99.90;;;;;;5055147;28;20714;-66
2021/05/09 11:22:11;;;;;;;2.70;2.20;;;27.30;99.90;;;;;;5055260;28;20986;-65
2021/05/09 11:24:39;;;;;;;2.70;1.90;;;27.60;99.90;;;;;;5054951;28;20622;-66
2021/05/09 11:27:16;;;;;;;2.60;1.83;;;27.50;99.90;;;;;;5055171;28;20624;-66
2021/05/09 11:29:49;;;;;;;6.97;2.27;;;28.70;99.90;;;;;;5055594;28;20626;-66
2021/05/09 11:32:18;;;;;;;2.30;2.10;;;29.30;99.90;;;;;;5055099;28;20571;-66
2021/05/09 11:34:58;;;;;;;3.10;2.10;;;29.10;99.90;;;;;;5054892;28;21153;-66
2021/05/09 11:37:34;;;;;;;2.50;1.67;;;29.20;99.90;;;;;;5055284;28;21002;-66
2021/05/09 11:40:03;;;;;;;2.93;2.30;;;29.30;99.90;;;;;;5054838;28;20630;-66
2021/05/09 11:42:30;;;;;;;2.10;1.90;;;29.50;99.90;;;;;;5054889;28;20619;-66
2021/05/09 11:44:57;;;;;;;2.80;1.80;;;29.50;99.90;;;;;;5054946;28;20991;-66
2021/05/09 11:47:26;;;;;;;3.37;1.90;;;29.60;99.90;;;;;;5055544;28;20603;-66
2021/05/09 11:50:01;;;;;;;1.43;1.33;;;29.20;99.90;;;;;;5055908;28;20630;-66
2021/05/09 11:52:32;;;;;;;2.20;1.73;;;29.10;99.90;;;;;;5055581;28;20654;-66
2021/05/09 11:55:00;;;;;;;3.90;2.10;;;29.60;99.90;;;;;;5054280;28;20630;-66
2021/05/09 11:57:29;;;;;;;3.20;1.77;;;29.00;99.90;;;;;;5055505;28;20994;-66
2021/05/09 12:00:05;;;;;;;4.30;1.70;;;29.20;99.90;;;;;;5055382;28;20615;-66
2021/05/09 12:02:37;;;;;;;1.80;1.60;;;29.40;99.90;;;;;;5054051;28;20614;-66
2021/05/09 12:05:27;;;;;;;2.30;1.80;;;29.60;99.90;;;;;;5055565;28;21114;-66
2021/05/09 12:07:55;;;;;;;1.50;1.40;;;29.60;99.90;;;;;;5055504;28;20579;-66
2021/05/09 12:10:24;;;;;;;1.97;1.53;;;29.40;99.90;;;;;;5054812;28;20623;-66
2021/05/09 12:13:03;;;;;;;1.53;1.43;;;29.30;99.90;;;;;;5055457;28;21199;-66
2021/05/09 12:15:38;;;;;;;2.40;1.37;;;29.10;99.90;;;;;;5054153;28;20629;-66
2021/05/09 12:18:05;;;;;;;2.03;1.77;;;29.00;99.90;;;;;;5054819;28;20654;-66
2021/05/09 12:20:41;;;;;;;2.90;1.93;;;28.90;99.90;;;;;;5054751;28;20623;-66
2021/05/09 12:23:18;;;;;;;3.90;1.80;;;28.80;99.90;;;;;;5056646;28;20562;-66
2021/05/09 12:25:49;;;;;;;3.00;2.00;;;28.70;99.90;;;;;;5057588;28;20579;-65
2021/05/09 12:28:31;;;;;;;2.33;1.90;;;28.80;99.90;;;;;;5057032;28;20615;-65
2021/05/09 12:31:08;;;;;;;2.00;1.70;;;28.90;99.90;;;;;;5057773;28;20722;-65
2021/05/09 12:33:35;;;;;;;3.03;2.10;;;28.70;99.90;;;;;;5057165;28;20629;-65
2021/05/09 12:36:20;;;;;;;4.17;1.87;;;28.70;99.90;;;;;;5056358;28;20624;-66
2021/05/09 12:38:46;;;;;;;1.77;1.67;;;28.40;99.90;;;;;;5056297;28;21154;-66
2021/05/09 12:41:15;;;;;;;2.30;2.10;;;28.60;99.90;;;;;;5057269;28;20619;-66
2021/05/09 12:43:48;;;;;;;3.73;1.73;;;28.50;99.90;;;;;;5056538;28;20611;-65
2021/05/09 12:46:45;;;;;;;2.00;1.50;;;28.50;99.90;;;;;;5056144;28;20619;-65
2021/05/09 12:49:19;;;;;;;2.40;2.20;;;28.40;99.90;;;;;;5056253;28;20587;-65
2021/05/09 12:52:02;;;;;;;1.90;1.80;;;28.70;99.90;;;;;;5056340;28;20568;-66
2021/05/09 12:54:46;;;;;;;2.40;2.10;;;28.50;99.90;;;;;;5057209;28;20607;-66
2021/05/09 12:57:18;;;;;;;2.60;2.40;;;28.70;99.90;;;;;;5055234;28;20745;-66
2021/05/09 12:59:50;;;;;;;5.17;1.67;;;28.70;99.90;;;;;;5055814;28;21046;-67
2021/05/09 13:02:18;;;;;;;2.70;2.50;;;29.10;99.90;;;;;;5055686;28;20631;-66